Time;durP1;ratioP1;P1;durP2;ratioP2;P2;SDS_P1;SDS_P2;PMS_P1;PMS_P2;Temp;Humidity;BMP_temperature;BMP_pressure;BME280_temperature;BME280_humidity;BME280_pressure;Samples;Min_cycle;Max_cycle;Signal;HPM_P1;HPM_P2
2023/03/22 00:01:32;;;;;;;7.68;5.22;;;;;;;7.91;100.00;100365.28;5074460;28;20036;-88
2023/03/22 00:04:05;;;;;;;6.68;5.78;;;;;;;7.90;100.00;100366.16;5070752;28;20067;-85
2023/03/22 00:06:48;;;;;;;5.95;4.40;;;;;;;7.86;100.00;100367.91;5066822;28;20044;-87
2023/03/22 00:09:28;;;;;;;10.57;6.03;;;;;;;7.87;100.00;100363.56;5055151;28;20037;-87
2023/03/22 00:11:57;;;;;;;9.07;5.22;;;;;;;7.89;100.00;100372.25;5071830;28;20634;-87
2023/03/22 00:14:31;;;;;;;6.85;5.70;;;;;;;7.94;100.00;100365.28;5055471;28;20035;-85
2023/03/22 00:17:03;;;;;;;7.82;5.18;;;;;;;7.97;100.00;100359.22;5071258;28;20067;-85
2023/03/22 00:19:33;;;;;;;9.02;5.32;;;;;;;8.03;100.00;100359.16;5061612;28;20075;-87
2023/03/22 00:22:04;;;;;;;7.28;5.70;;;;;;;8.05;100.00;100357.44;5059752;28;20041;-85
2023/03/22 00:24:38;;;;;;;12.00;5.45;;;;;;;7.99;100.00;100358.34;5059169;28;20043;-85
2023/03/22 00:27:11;;;;;;;9.70;5.93;;;;;;;7.94;100.00;100350.50;5053388;28;20064;-85
2023/03/22 00:29:41;;;;;;;11.10;7.78;;;;;;;7.95;100.00;100349.66;5048550;28;20046;-86
2023/03/22 00:32:14;;;;;;;6.65;5.68;;;;;;;7.97;100.00;100354.84;5063692;28;20037;-85
2023/03/22 00:34:44;;;;;;;7.82;5.50;;;;;;;7.85;100.00;100357.47;5052132;28;20025;-87
2023/03/22 00:37:16;;;;;;;10.93;5.88;;;;;;;7.72;100.00;100349.69;5070245;28;20030;-87
2023/03/22 00:39:44;;;;;;;8.10;5.70;;;;;;;7.64;100.00;100347.97;5062013;28;20060;-85
2023/03/22 00:42:13;;;;;;;10.45;5.63;;;;;;;7.55;100.00;100346.28;5043714;28;20771;-85
2023/03/22 00:44:42;;;;;;;17.08;8.07;;;;;;;7.52;100.00;100343.66;5052588;28;20658;-86
2023/03/22 00:47:09;;;;;;;8.25;5.65;;;;;;;7.49;100.00;100338.47;5034716;28;20122;-86
2023/03/22 00:49:36;;;;;;;10.68;6.13;;;;;;;7.44;100.00;100330.63;5048816;28;20551;-85
2023/03/22 00:52:03;;;;;;;6.97;5.68;;;;;;;7.41;100.00;100336.72;5058031;28;20071;-86
2023/03/22 00:54:30;;;;;;;8.93;7.25;;;;;;;7.33;100.00;100333.25;5048991;28;20518;-88
2023/03/22 00:56:56;;;;;;;6.88;6.18;;;;;;;7.26;100.00;100332.41;5034865;28;20141;-88
2023/03/22 00:59:24;;;;;;;11.23;6.97;;;;;;;7.24;100.00;100318.50;5032977;28;20084;-86
2023/03/22 01:01:50;;;;;;;8.57;5.80;;;;;;;7.29;100.00;100318.50;5052601;28;20057;-87
2023/03/22 01:04:24;;;;;;;15.73;7.07;;;;;;;7.28;100.00;100321.97;5035779;28;20049;-86
2023/03/22 01:06:57;;;;;;;8.55;6.68;;;;;;;7.27;100.00;100323.72;5032358;28;20075;-86
2023/03/22 01:09:29;;;;;;;10.02;6.55;;;;;;;7.31;100.00;100315.91;5032486;28;20492;-86
2023/03/22 01:11:57;;;;;;;8.55;7.43;;;;;;;7.41;100.00;100307.22;5032694;28;20045;-87
2023/03/22 01:14:30;;;;;;;8.32;6.43;;;;;;;7.50;100.00;100316.75;5030585;28;20075;-87
2023/03/22 01:16:57;;;;;;;9.82;6.72;;;;;;;7.56;100.00;100308.91;5032864;28;20072;-85
2023/03/22 01:19:25;;;;;;;9.93;7.07;;;;;;;7.65;100.00;100305.44;5046334;28;20083;-86
2023/03/22 01:21:52;;;;;;;9.57;6.40;;;;;;;7.71;100.00;100310.63;5050603;28;20052;-89
2023/03/22 01:24:19;;;;;;;9.45;6.80;;;;;;;7.71;100.00;100303.66;5030727;28;20042;-86
2023/03/22 01:26:46;;;;;;;8.88;6.35;;;;;;;7.70;100.00;100308.88;5031453;28;20067;-86
2023/03/22 01:29:13;;;;;;;11.18;7.00;;;;;;;7.69;100.00;100300.22;5028513;28;20065;-86
2023/03/22 01:31:39;;;;;;;9.40;7.53;;;;;;;7.71;100.00;100295.84;5045488;28;20053;-86
2023/03/22 01:34:06;;;;;;;10.07;7.05;;;;;;;7.72;100.00;100296.75;5038561;28;20057;-86
2023/03/22 01:36:32;;;;;;;10.23;7.35;;;;;;;7.72;100.00;100301.94;5044546;28;20065;-86
2023/03/22 01:38:59;;;;;;;14.15;6.90;;;;;;;7.74;100.00;100289.75;5030621;28;20048;-86
2023/03/22 01:41:25;;;;;;;9.35;7.15;;;;;;;7.78;100.00;100289.75;5029651;28;20532;-87
2023/03/22 01:44:15;;;;;;;10.70;7.60;;;;;;;7.86;100.00;100291.47;5049971;28;20048;-86
2023/03/22 01:46:45;;;;;;;12.90;7.97;;;;;;;7.89;100.00;100291.47;5055099;28;20059;-86
2023/03/22 01:49:26;;;;;;;10.40;7.43;;;;;;;7.92;100.00;100283.63;5045003;28;20060;-86
2023/03/22 01:51:59;;;;;;;9.50;6.97;;;;;;;7.93;100.00;100288.81;5048154;28;20032;-86
2023/03/22 01:54:41;;;;;;;10.18;7.68;;;;;;;7.98;100.00;100285.31;5062282;28;20067;-86
2023/03/22 01:57:12;;;;;;;8.70;6.93;;;;;;;8.01;100.00;100272.31;5054104;28;20045;-85
2023/03/22 01:59:52;;;;;;;8.70;7.32;;;;;;;8.02;100.00;100276.66;5053370;28;20026;-87
2023/03/22 02:02:18;;;;;;;12.95;7.97;;;;;;;8.01;100.00;100270.53;5041346;28;20045;-87
2023/03/22 02:04:49;;;;;;;10.30;7.22;;;;;;;7.99;100.00;100269.72;5047745;28;20048;-86
2023/03/22 02:07:24;;;;;;;12.77;7.55;;;;;;;7.98;100.00;100272.28;5046895;28;20041;-86
2023/03/22 02:09:52;;;;;;;12.40;8.13;;;;;;;7.94;100.00;100261.91;5041489;28;20048;-88
2023/03/22 02:12:44;;;;;;;14.32;7.93;;;;;;;7.94;100.00;100261.03;5028343;28;20053;-86
2023/03/22 02:15:26;;;;;;;11.32;7.53;;;;;;;7.93;100.00;100254.09;5026026;28;20045;-86
2023/03/22 02:18:24;;;;;;;12.40;8.10;;;;;;;7.90;100.00;100249.75;5046174;28;20147;-87
2023/03/22 02:21:36;;;;;;;12.90;8.57;;;;;;;7.90;100.00;100252.38;5044499;28;20053;-87
2023/03/22 02:24:27;;;;;;;9.90;7.70;;;;;;;7.92;100.00;100253.19;5027095;28;20598;-87
2023/03/22 02:27:32;;;;;;;9.88;7.45;;;;;;;7.91;100.00;100245.41;5029207;28;20048;-86
2023/03/22 02:30:20;;;;;;;;;;;;;;;7.92;100.00;100253.19;5028786;28;20503;-88
2023/03/22 02:33:29;;;;;;;10.90;7.13;;;;;;;7.93;100.00;100251.47;5029292;28;19967;-87
2023/03/22 02:36:35;;;;;;;10.55;6.93;;;;;;;7.92;100.00;100244.53;5028197;28;20063;-86
2023/03/22 02:39:14;;;;;;;10.88;8.30;;;;;;;7.92;100.00;100249.75;5028545;28;20399;-87
2023/03/22 02:42:06;;;;;;;10.38;7.40;;;;;;;7.90;100.00;100246.25;5027962;28;20095;-86
2023/03/22 02:44:58;;;;;;;11.73;7.50;;;;;;;7.90;100.00;100239.31;5043465;28;20397;-86
2023/03/22 02:47:59;;;;;;;11.68;8.48;;;;;;;7.92;100.00;100247.13;5021528;28;20041;-87
2023/03/22 02:50:48;;;;;;;9.70;6.78;;;;;;;7.98;100.00;100246.22;5039568;28;20049;-87
2023/03/22 02:53:21;;;;;;;9.07;6.40;;;;;;;8.03;100.00;100240.13;5021307;28;20064;-87
2023/03/22 02:56:14;;;;;;;9.67;6.83;;;;;;;8.06;100.00;100241.88;5031622;28;20141;-86
2023/03/22 02:58:45;;;;;;;11.45;7.50;;;;;;;8.09;100.00;100245.28;5031816;28;20151;-86
2023/03/22 03:01:24;;;;;;;11.95;7.80;;;;;;;8.10;100.00;100243.56;5015960;28;20049;-87
2023/03/22 03:03:56;;;;;;;12.68;8.80;;;;;;;8.09;100.00;100242.69;5032463;28;20069;-86
2023/03/22 03:06:25;;;;;;;10.50;7.75;;;;;;;8.07;100.00;100243.56;5018986;28;20048;-87
2023/03/22 03:08:56;;;;;;;13.05;8.57;;;;;;;8.07;100.00;100240.97;5030194;28;20523;-88
2023/03/22 03:11:24;;;;;;;12.48;8.18;;;;;;;8.09;100.00;100244.44;5033773;28;20052;-88
2023/03/22 03:13:51;;;;;;;15.18;9.32;;;;;;;8.10;100.00;100239.22;5017392;28;20093;-86
2023/03/22 03:16:26;;;;;;;12.40;8.40;;;;;;;8.11;100.00;100240.94;5019176;28;20137;-87
2023/03/22 03:19:07;;;;;;;10.20;7.45;;;;;;;8.14;100.00;100232.25;5021479;28;20095;-85
2023/03/22 03:22:03;;;;;;;10.98;8.25;;;;;;;8.17;100.00;100228.75;5050108;28;20045;-86
2023/03/22 03:25:05;;;;;;;14.82;8.60;;;;;;;8.22;100.00;100234.81;5034376;28;20045;-87
2023/03/22 03:27:39;;;;;;;13.93;8.50;;;;;;;8.25;100.00;100235.66;5057946;28;20037;-88
2023/03/22 03:30:26;;;;;;;9.05;7.35;;;;;;;8.30;100.00;100238.22;5032973;28;20045;-85
2023/03/22 03:32:59;;;;;;;14.02;7.97;;;;;;;8.34;100.00;100231.25;5057513;28;20044;-87
2023/03/22 03:35:38;;;;;;;9.75;7.80;;;;;;;8.35;100.00;100233.00;5033133;28;20056;-88
2023/03/22 03:38:12;;;;;;;8.40;5.93;;;;;;;8.33;100.00;100225.19;5032319;28;20124;-88
2023/03/22 03:40:48;;;;;;;10.90;8.50;;;;;;;8.35;100.00;100219.97;5035334;28;20041;-87
2023/03/22 03:43:16;;;;;;;11.70;8.02;;;;;;;8.31;100.00;100219.09;5034040;28;20958;-87
2023/03/22 03:45:42;;;;;;;11.90;9.48;;;;;;;8.30;100.00;100224.34;5032510;28;20052;-88
2023/03/22 03:48:18;;;;;;;15.18;10.45;;;;;;;8.28;100.00;100220.00;5048984;28;20095;-87
2023/03/22 03:50:49;;;;;;;10.95;8.57;;;;;;;8.26;100.00;100210.44;5046892;28;20151;-86
2023/03/22 03:53:18;;;;;;;11.80;8.60;;;;;;;8.25;100.00;100208.72;5031398;28;20576;-86
2023/03/22 03:55:45;;;;;;;12.25;8.40;;;;;;;8.23;100.00;100206.13;5055616;28;20160;-85
2023/03/22 03:58:11;;;;;;;14.10;9.00;;;;;;;8.21;100.00;100201.78;5034186;28;20579;-87
2023/03/22 04:00:38;;;;;;;15.38;9.30;;;;;;;8.19;100.00;100203.56;5048955;28;20122;-86
2023/03/22 04:03:06;;;;;;;11.60;8.23;;;;;;;8.18;100.00;100207.88;5049810;28;20604;-87
2023/03/22 04:05:33;;;;;;;13.82;9.45;;;;;;;8.15;100.00;100205.31;5050064;28;20056;-87
2023/03/22 04:08:00;;;;;;;12.52;8.73;;;;;;;8.16;100.00;100204.44;5032792;28;20041;-85
2023/03/22 04:10:26;;;;;;;11.57;9.20;;;;;;;8.15;100.00;100200.09;5049654;28;20591;-87
2023/03/22 04:12:53;;;;;;;17.52;11.50;;;;;;;8.13;100.00;100194.00;5037196;28;20074;-87
2023/03/22 04:15:19;;;;;;;12.85;9.45;;;;;;;8.10;100.00;100194.03;5032268;28;20045;-86
2023/03/22 04:17:48;;;;;;;14.93;9.68;;;;;;;8.10;100.00;100194.91;5065210;28;20036;-86
2023/03/22 04:20:14;;;;;;;12.45;8.95;;;;;;;8.10;100.00;100186.22;5021358;28;20125;-85
2023/03/22 04:22:41;;;;;;;11.68;8.32;;;;;;;8.07;100.00;100192.31;5032099;28;20049;-85
2023/03/22 04:25:12;;;;;;;15.32;10.45;;;;;;;8.07;100.00;100189.72;5040659;28;20064;-87
2023/03/22 04:27:40;;;;;;;12.90;9.82;;;;;;;8.09;100.00;100192.31;5020037;28;20041;-86
2023/03/22 04:30:11;;;;;;;13.65;9.63;;;;;;;8.14;100.00;100197.50;5032437;28;20492;-86
2023/03/22 04:32:38;;;;;;;16.05;9.75;;;;;;;8.16;100.00;100187.91;5034372;28;20064;-86
2023/03/22 04:35:06;;;;;;;11.07;8.45;;;;;;;8.18;100.00;100188.78;5038355;28;20606;-86
2023/03/22 04:37:32;;;;;;;15.20;9.93;;;;;;;8.21;100.00;100186.13;5014603;28;20036;-87
2023/03/22 04:39:59;;;;;;;14.90;9.90;;;;;;;8.21;100.00;100189.63;5032436;28;20135;-87
2023/03/22 04:42:26;;;;;;;12.90;9.30;;;;;;;8.20;100.00;100184.41;5015481;28;20048;-87
2023/03/22 04:44:53;;;;;;;11.52;9.50;;;;;;;8.20;100.00;100177.47;5019165;28;20080;-86
2023/03/22 04:47:19;;;;;;;10.98;8.43;;;;;;;8.23;100.00;100182.66;5030937;28;20037;-86
2023/03/22 04:49:46;;;;;;;11.40;8.30;;;;;;;8.25;100.00;100180.91;5021505;28;20044;-86
2023/03/22 04:52:12;;;;;;;13.95;10.13;;;;;;;8.30;100.00;100177.41;5053831;28;20079;-89
2023/03/22 04:54:39;;;;;;;10.75;9.02;;;;;;;8.33;100.00;100179.97;5015660;28;20041;-87
2023/03/22 04:57:06;;;;;;;16.70;10.52;;;;;;;8.36;100.00;100185.19;5037851;28;20051;-86
2023/03/22 04:59:32;;;;;;;12.00;9.15;;;;;;;8.36;100.00;100188.66;5029146;28;20048;-88
2023/03/22 05:01:59;;;;;;;13.98;8.80;;;;;;;8.35;100.00;100184.28;5015692;28;20139;-86
2023/03/22 05:04:27;;;;;;;15.30;10.48;;;;;;;8.36;100.00;100175.59;5038106;28;20051;-86
2023/03/22 05:06:53;;;;;;;12.55;9.45;;;;;;;8.36;100.00;100186.03;5033618;28;20506;-87
2023/03/22 05:09:20;;;;;;;13.10;8.05;;;;;;;8.34;100.00;100174.75;5015292;28;20164;-87
2023/03/22 05:11:46;;;;;;;13.25;9.02;;;;;;;8.36;100.00;100172.16;5015758;28;20104;-88
2023/03/22 05:14:13;;;;;;;13.57;9.00;;;;;;;8.36;100.00;100185.19;5033249;28;20391;-89
2023/03/22 05:16:40;;;;;;;12.77;9.05;;;;;;;8.37;100.00;100186.88;5036004;28;20047;-87
2023/03/22 05:19:12;;;;;;;13.15;9.00;;;;;;;8.37;100.00;100172.13;5014851;28;20061;-85
2023/03/22 05:21:42;;;;;;;12.65;9.77;;;;;;;8.37;100.00;100169.53;5027877;28;20049;-86
2023/03/22 05:24:10;;;;;;;11.98;9.18;;;;;;;8.40;100.00;100171.25;5013690;28;20103;-86
2023/03/22 05:26:41;;;;;;;14.25;9.32;;;;;;;8.44;100.00;100173.78;5035956;28;20045;-87
2023/03/22 05:29:10;;;;;;;12.52;9.25;;;;;;;8.47;100.00;100172.94;5013618;28;20203;-88
2023/03/22 05:31:37;;;;;;;20.13;10.82;;;;;;;8.50;100.00;100174.66;5029727;28;20076;-88
2023/03/22 05:34:06;;;;;;;12.27;9.68;;;;;;;8.50;100.00;100166.81;5024189;28;20135;-86
2023/03/22 05:36:35;;;;;;;15.80;10.63;;;;;;;8.52;100.00;100168.53;5037439;28;20045;-88
2023/03/22 05:39:03;;;;;;;17.10;11.02;;;;;;;8.56;100.00;100174.63;5022659;28;20045;-85
2023/03/22 05:41:32;;;;;;;14.40;10.07;;;;;;;8.57;100.00;100160.69;5018236;28;20060;-87
2023/03/22 05:44:00;;;;;;;12.50;9.07;;;;;;;8.61;100.00;100170.22;5016229;28;20134;-88
2023/03/22 05:46:27;;;;;;;12.93;9.55;;;;;;;8.63;100.00;100162.38;5018662;28;20084;-87
2023/03/22 05:48:53;;;;;;;18.65;10.32;;;;;;;8.65;100.00;100160.63;5015166;28;20399;-86
2023/03/22 05:51:24;;;;;;;14.60;11.40;;;;;;;8.62;100.00;100153.69;5015775;28;20048;-89
2023/03/22 05:53:52;;;;;;;20.45;10.93;;;;;;;8.59;100.00;100162.41;5037434;28;20124;-86
2023/03/22 05:56:22;;;;;;;18.08;12.13;;;;;;;8.57;100.00;100163.31;5010970;28;20109;-86
2023/03/22 05:58:50;;;;;;;20.42;12.40;;;;;;;8.58;100.00;100154.59;5036475;28;20044;-85
2023/03/22 06:01:19;;;;;;;19.92;14.45;;;;;;;8.58;100.00;100154.59;5028218;28;20143;-87
2023/03/22 06:03:47;;;;;;;21.27;12.48;;;;;;;8.61;100.00;100146.75;5027863;28;20045;-87
2023/03/22 06:06:14;;;;;;;16.25;11.98;;;;;;;8.61;100.00;100147.59;5019901;28;20307;-89
2023/03/22 06:08:41;;;;;;;19.55;11.82;;;;;;;8.63;100.00;100155.44;5015770;28;20053;-87
2023/03/22 06:11:08;;;;;;;20.02;11.50;;;;;;;8.65;100.00;100138.00;5025247;28;20969;-87
2023/03/22 06:13:36;;;;;;;18.15;11.90;;;;;;;8.66;100.00;100146.72;5025511;28;20144;-87
2023/03/22 06:16:05;;;;;;;22.05;11.68;;;;;;;8.69;100.00;100139.69;5032281;28;20500;-86
2023/03/22 06:18:32;;;;;;;20.30;11.27;;;;;;;8.71;100.00;100144.94;5039897;28;20064;-87
2023/03/22 06:20:59;;;;;;;16.55;12.02;;;;;;;8.73;100.00;100138.78;5044735;28;20136;-86
2023/03/22 06:23:26;;;;;;;17.52;11.05;;;;;;;8.78;100.00;100139.59;5033384;28;20052;-89
2023/03/22 06:25:52;;;;;;;18.80;11.43;;;;;;;8.83;100.00;100134.34;5055557;28;20055;-89
2023/03/22 06:28:19;;;;;;;19.23;11.98;;;;;;;8.90;100.00;100129.94;5042025;28;20044;-88
2023/03/22 06:30:46;;;;;;;17.92;11.00;;;;;;;8.94;100.00;100134.22;5051917;28;20056;-88
2023/03/22 06:33:13;;;;;;;17.55;12.35;;;;;;;8.99;100.00;100137.66;5056571;28;20048;-88
2023/03/22 06:35:39;;;;;;;16.40;11.48;;;;;;;9.02;100.00;100135.03;5039880;28;20041;-88
2023/03/22 06:38:06;;;;;;;17.48;12.23;;;;;;;9.10;100.00;100143.63;5038839;28;20036;-87
2023/03/22 06:40:34;;;;;;;17.58;10.95;;;;;;;9.17;100.00;100139.19;5040029;28;20055;-87
2023/03/22 06:43:01;;;;;;;17.67;10.88;;;;;;;9.26;100.00;100144.31;5052804;28;20045;-88
2023/03/22 06:45:32;;;;;;;16.10;11.63;;;;;;;9.36;100.00;100147.69;5036674;28;20058;-90
2023/03/22 06:48:00;;;;;;;14.20;10.50;;;;;;;9.45;100.00;100141.47;5047229;28;20041;-87
2023/03/22 06:50:28;;;;;;;18.25;11.70;;;;;;;9.59;100.00;100144.81;5052865;28;20127;-87
2023/03/22 06:52:55;;;;;;;16.85;11.05;;;;;;;9.69;100.00;100136.84;5037733;28;20056;-88
2023/03/22 06:55:24;;;;;;;18.27;10.77;;;;;;;9.76;100.00;100139.34;5052437;28;20040;-88
2023/03/22 06:57:51;;;;;;;17.75;10.70;;;;;;;9.85;100.00;100135.72;5027474;28;20049;-86
2023/03/22 07:00:18;;;;;;;14.57;9.95;;;;;;;9.94;100.00;100129.50;5048270;28;20488;-87
2023/03/22 07:02:47;;;;;;;12.85;10.20;;;;;;;9.93;100.00;100133.00;5043038;28;20049;-89
2023/03/22 07:05:13;;;;;;;17.77;10.70;;;;;;;9.89;100.00;100133.94;5057308;28;20052;-90
2023/03/22 07:07:40;;;;;;;16.35;10.75;;;;;;;9.76;100.00;100131.50;5055043;28;20041;-88
2023/03/22 07:10:07;;;;;;;17.25;11.00;;;;;;;9.62;100.00;100143.00;5038759;28;20056;-87
2023/03/22 07:12:34;;;;;;;14.88;10.57;;;;;;;9.50;100.00;100131.84;5039107;28;20534;-88
2023/03/22 07:15:01;;;;;;;13.48;10.02;;;;;;;9.42;100.00;100139.75;5031658;28;20044;-87
2023/03/22 07:17:27;;;;;;;15.35;10.40;;;;;;;9.47;100.00;100144.09;5051774;28;20056;-88
2023/03/22 07:19:54;;;;;;;14.10;10.38;;;;;;;9.55;100.00;100143.09;5022225;28;20411;-90
2023/03/22 07:22:21;;;;;;;16.48;10.35;;;;;;;9.84;100.00;100148.81;5021556;28;20064;-88
2023/03/22 07:24:49;;;;;;;14.98;9.45;;;;;;;10.26;100.00;100154.31;5034615;28;20049;-87
2023/03/22 07:27:16;;;;;;;14.15;10.60;;;;;;;10.78;97.85;100139.53;5028234;28;20096;-89
2023/03/22 07:29:42;;;;;;;14.48;10.27;;;;;;;11.24;95.77;100135.16;5028657;28;20086;-89
2023/03/22 07:32:10;;;;;;;9.48;8.23;;;;;;;11.65;92.53;100136.03;5031218;28;20386;-88
2023/03/22 07:34:37;;;;;;;18.08;10.20;;;;;;;12.12;90.63;100133.25;5023444;28;20492;-89
2023/03/22 07:37:04;;;;;;;13.13;8.50;;;;;;;12.69;88.46;100131.00;5034808;28;20112;-89
2023/03/22 07:39:31;;;;;;;10.70;7.90;;;;;;;12.67;87.21;100124.91;5028382;28;20037;-90
2023/03/22 07:41:58;;;;;;;14.20;10.07;;;;;;;12.58;87.07;100128.66;5035655;28;20041;-88
2023/03/22 07:44:24;;;;;;;14.65;9.25;;;;;;;12.59;86.77;100122.47;5024084;28;20098;-88
2023/03/22 07:46:51;;;;;;;16.42;8.98;;;;;;;12.40;86.01;100125.56;5016731;28;20140;-88
2023/03/22 07:49:18;;;;;;;11.52;8.57;;;;;;;12.27;86.92;100124.16;5022857;28;20104;-87
2023/03/22 07:51:45;;;;;;;13.63;8.40;;;;;;;12.28;87.55;100118.03;5041489;28;20056;-89
2023/03/22 07:54:12;;;;;;;15.00;9.05;;;;;;;12.88;85.42;100118.22;5031426;28;20037;-87
2023/03/22 07:56:38;;;;;;;13.52;8.07;;;;;;;13.62;82.80;100117.91;5019893;28;20503;-89
2023/03/22 07:59:06;;;;;;;10.27;7.32;;;;;;;14.47;80.40;100112.59;5019026;28;20044;-89
2023/03/22 08:01:32;;;;;;;10.45;7.95;;;;;;;15.34;76.58;100111.31;5019984;28;20061;-88
2023/03/22 08:03:59;;;;;;;11.63;8.65;;;;;;;16.02;72.26;100106.06;5018616;28;20454;-89
2023/03/22 08:06:32;;;;;;;9.38;7.00;;;;;;;15.93;72.91;100102.91;5021688;28;20059;-89
2023/03/22 08:08:59;;;;;;;8.10;6.78;;;;;;;15.55;71.72;100100.84;5040265;28;20032;-88
2023/03/22 08:11:26;;;;;;;10.20;7.07;;;;;;;14.86;72.79;100114.78;5024825;28;20057;-91
2023/03/22 08:13:53;;;;;;;7.22;6.18;;;;;;;14.14;75.17;100118.06;5022700;28;20073;-88
2023/03/22 08:16:20;;;;;;;10.82;6.55;;;;;;;13.57;76.95;100113.66;5020989;28;20048;-88
2023/03/22 08:18:46;;;;;;;7.22;5.70;;;;;;;13.15;78.74;100102.59;5031899;28;20052;-87
2023/03/22 08:21:15;;;;;;;7.45;5.28;;;;;;;12.91;79.78;100097.97;5032277;28;20037;-86
2023/03/22 08:23:42;;;;;;;8.77;5.55;;;;;;;12.73;80.29;100101.13;5065470;28;20080;-87
2023/03/22 08:26:10;;;;;;;6.82;5.15;;;;;;;12.63;81.18;100103.09;5033373;28;20066;-88
2023/03/22 08:28:38;;;;;;;7.28;5.93;;;;;;;12.55;81.22;100084.97;5032654;28;20090;-87
2023/03/22 08:31:14;;;;;;;8.70;5.75;;;;;;;12.51;81.05;100087.69;5034626;28;20117;-88
2023/03/22 08:33:41;;;;;;;8.02;5.72;;;;;;;12.48;81.03;100083.38;5032313;28;20097;-88
2023/03/22 08:36:12;;;;;;;10.00;5.82;;;;;;;12.46;81.25;100082.56;5032382;28;20079;-87
2023/03/22 08:38:39;;;;;;;8.65;5.85;;;;;;;12.41;81.65;100080.06;5033231;28;20527;-86
2023/03/22 08:41:05;;;;;;;7.82;6.10;;;;;;;12.49;81.31;100078.97;5025708;28;20055;-86
2023/03/22 08:43:32;;;;;;;10.48;6.78;;;;;;;12.51;81.26;100077.19;5060666;28;20626;-87
2023/03/22 08:46:00;;;;;;;8.73;6.05;;;;;;;12.52;80.67;100066.66;5031768;28;20159;-87
2023/03/22 08:48:29;;;;;;;7.30;5.57;;;;;;;12.49;81.02;100065.84;5033162;28;20041;-87
2023/03/22 08:50:55;;;;;;;9.10;5.32;;;;;;;12.54;80.63;100053.47;5033887;28;20443;-88
2023/03/22 08:53:22;;;;;;;7.93;5.45;;;;;;;12.49;80.51;100061.50;5033913;28;20083;-88
2023/03/22 08:55:49;;;;;;;8.20;6.18;;;;;;;12.43;80.37;100059.00;5025024;28;20049;-87
2023/03/22 08:58:18;;;;;;;6.63;5.20;;;;;;;12.44;80.97;100062.50;5062143;28;20044;-88
2023/03/22 09:00:46;;;;;;;7.80;5.82;;;;;;;12.54;81.13;100061.34;5034688;28;20110;-88
2023/03/22 09:03:13;;;;;;;10.18;6.47;;;;;;;12.77;79.80;100054.63;5033423;28;20063;-86
2023/03/22 09:05:41;;;;;;;9.13;6.15;;;;;;;12.89;78.90;100060.41;5050991;28;20115;-87
2023/03/22 09:08:08;;;;;;;6.10;4.65;;;;;;;13.02;78.29;100065.28;5032746;28;20045;-88
2023/03/22 09:10:39;;;;;;;10.85;6.55;;;;;;;13.20;78.26;100066.53;5043663;28;20041;-88
2023/03/22 09:13:06;;;;;;;12.15;6.03;;;;;;;13.60;76.77;100057.50;5032929;28;20069;-86
2023/03/22 09:15:32;;;;;;;8.82;6.18;;;;;;;13.87;75.81;100057.50;5045645;28;20098;-87
2023/03/22 09:17:59;;;;;;;8.48;5.60;;;;;;;13.92;74.68;100052.97;5040931;28;20045;-86
2023/03/22 09:20:26;;;;;;;8.60;5.13;;;;;;;13.90;75.09;100046.91;5014949;28;20538;-88
2023/03/22 09:22:52;;;;;;;10.90;5.75;;;;;;;13.94;74.73;100038.00;5019814;28;20049;-86
2023/03/22 09:25:20;;;;;;;7.72;5.35;;;;;;;13.96;74.38;100037.94;5018791;28;20053;-87
2023/03/22 09:27:47;;;;;;;7.72;5.43;;;;;;;13.86;74.12;100025.09;5023634;28;20049;-89
2023/03/22 09:30:13;;;;;;;7.05;5.70;;;;;;;13.98;74.66;100026.44;5033188;28;20044;-87
2023/03/22 09:32:42;;;;;;;9.07;5.10;;;;;;;14.16;73.24;100016.22;5013560;28;20106;-87
2023/03/22 09:35:09;;;;;;;10.75;5.88;;;;;;;14.29;73.12;100017.53;5014946;28;20590;-88
2023/03/22 09:37:36;;;;;;;9.07;5.35;;;;;;;14.46;72.77;100021.34;5017210;28;20057;-88
2023/03/22 09:40:06;;;;;;;6.70;5.38;;;;;;;14.70;71.90;100011.72;5017882;28;20051;-87
2023/03/22 09:42:42;;;;;;;8.63;4.72;;;;;;;14.71;71.07;100019.56;5014673;28;20136;-87
2023/03/22 09:45:23;;;;;;;10.23;5.68;;;;;;;14.65;70.88;100013.66;5016296;28;20090;-86
2023/03/22 09:47:55;;;;;;;7.75;4.25;;;;;;;14.61;71.49;100017.31;5032356;28;20041;-88
2023/03/22 09:50:26;;;;;;;4.03;3.63;;;;;;;14.98;69.69;100005.44;5013697;28;20069;-88
2023/03/22 09:52:54;;;;;;;8.40;3.58;;;;;;;15.25;68.69;99989.47;5029949;28;20090;-88
2023/03/22 09:55:41;;;;;;;4.55;3.40;;;;;;;15.68;66.08;99986.00;5029246;28;20051;-88
2023/03/22 09:58:36;;;;;;;6.88;3.70;;;;;;;15.93;65.55;99998.22;5039801;28;20833;-89
2023/03/22 10:01:09;;;;;;;4.32;3.42;;;;;;;16.38;63.17;99991.88;5020777;28;20051;-87
2023/03/22 10:04:14;;;;;;;6.75;3.08;;;;;;;16.76;62.37;99987.59;5032059;28;20060;-87
2023/03/22 10:06:50;;;;;;;6.32;3.33;;;;;;;16.76;61.00;99980.53;5034737;28;20051;-88
2023/03/22 10:09:53;;;;;;;4.63;3.08;;;;;;;16.72;60.42;99980.75;5035514;28;20396;-87
2023/03/22 10:12:30;;;;;;;3.87;2.30;;;;;;;16.97;59.86;99991.06;5022629;28;20049;-87
2023/03/22 10:15:10;;;;;;;5.28;2.80;;;;;;;17.06;59.13;99972.13;5021017;28;20454;-88
2023/03/22 10:17:43;;;;;;;6.45;3.08;;;;;;;17.42;57.08;99978.41;5044253;28;20041;-86
2023/03/22 10:20:49;;;;;;;4.82;2.88;;;;;;;18.13;54.24;99972.28;5036084;28;20430;-89
2023/03/22 10:23:23;;;;;;;4.20;2.53;;;;;;;18.54;51.75;99969.25;5036051;28;20044;-90
2023/03/22 10:25:51;;;;;;;2.63;2.42;;;;;;;18.61;51.41;99965.31;5036962;28;20045;-87
2023/03/22 10:28:24;;;;;;;3.55;2.70;;;;;;;18.44;52.60;99974.19;5020164;28;20548;-88
2023/03/22 10:30:55;;;;;;;4.43;2.72;;;;;;;18.13;51.66;99972.28;5047126;28;20048;-89
2023/03/22 10:33:40;;;;;;;7.22;2.47;;;;;;;17.38;53.34;99968.88;5034437;28;20057;-89
2023/03/22 10:36:13;;;;;;;3.72;2.85;;;;;;;17.50;53.03;99961.22;5036085;28;20040;-86
2023/03/22 10:38:48;;;;;;;4.97;2.60;;;;;;;18.44;50.05;99958.28;5050706;28;20407;-87
2023/03/22 10:41:24;;;;;;;5.05;1.90;;;;;;;19.15;47.23;99966.88;5034895;28;20143;-86
2023/03/22 10:44:01;;;;;;;2.15;1.92;;;;;;;18.48;47.31;99956.31;5036879;28;20080;-86
2023/03/22 10:46:36;;;;;;;2.88;1.83;;;;;;;17.94;49.18;99980.28;5030569;28;20438;-87
2023/03/22 10:49:06;;;;;;;4.53;1.70;;;;;;;17.75;48.73;99960.00;5050915;28;20053;-87
2023/03/22 10:51:40;;;;;;;3.40;2.05;;;;;;;17.35;50.05;99981.34;5049353;28;20044;-88
2023/03/22 10:54:14;;;;;;;1.40;1.30;;;;;;;16.92;49.41;99977.22;5034826;28;22060;-88
2023/03/22 10:56:44;;;;;;;3.13;1.23;;;;;;;16.32;51.41;99976.31;5036066;28;20049;-88
2023/03/22 10:59:47;;;;;;;5.00;1.75;;;;;;;16.12;52.00;99986.88;5038215;28;20056;-87
2023/03/22 11:02:32;;;;;;;4.97;1.45;;;;;;;15.83;53.02;99968.69;5039226;28;20106;-88
2023/03/22 11:05:17;;;;;;;2.58;1.50;;;;;;;16.10;53.65;99971.09;5047050;28;20040;-87
2023/03/22 11:07:46;;;;;;;3.97;2.13;;;;;;;16.47;53.53;99961.56;5043068;28;20130;-88
2023/03/22 11:10:22;;;;;;;3.22;1.73;;;;;;;16.57;51.94;99969.06;5051593;28;20075;-89
2023/03/22 11:13:11;;;;;;;3.08;1.63;;;;;;;16.83;50.50;99971.41;5035329;28;20045;-86
2023/03/22 11:15:54;;;;;;;4.03;1.38;;;;;;;16.88;48.91;99952.66;5054119;28;20381;-88
2023/03/22 11:18:30;;;;;;;1.73;1.27;;;;;;;16.64;49.66;99965.22;5037150;28;20389;-88
2023/03/22 11:21:12;;;;;;;3.78;1.90;;;;;;;16.61;51.36;99952.13;5022556;28;20080;-89
2023/03/22 11:23:56;;;;;;;3.72;2.25;;;;;;;16.32;52.64;99965.75;5037711;28;20125;-88
2023/03/22 11:26:36;;;;;;;2.83;1.65;;;;;;;16.39;52.35;99968.97;5043061;28;20053;-88
2023/03/22 11:29:16;;;;;;;4.40;1.50;;;;;;;16.12;51.81;99963.09;5046639;28;20515;-88
2023/03/22 11:31:57;;;;;;;2.60;1.27;;;;;;;15.88;51.22;99979.91;5065073;28;20428;-87
2023/03/22 11:34:29;;;;;;;4.88;1.05;;;;;;;15.81;51.37;99970.56;5032718;28;20041;-87
2023/03/22 11:37:00;;;;;;;3.60;1.40;;;;;;;16.11;50.81;99966.66;5050423;28;20075;-87
2023/03/22 11:39:29;;;;;;;5.60;1.63;;;;;;;16.65;49.51;99974.88;5036172;28;20128;-87
2023/03/22 11:42:02;;;;;;;9.48;1.25;;;;;;;17.13;48.14;99983.28;5049202;28;20186;-88